METAR Data
IDs: Format: Raw Decoded Include TAF

Data at: 1623 UTC 19 Sep 2018

METAR for:KSRQ (Sarasota-Bradenton I, FL, US)
Text:KSRQ 191553Z 25007KT 10SM CLR 31/26 A2998 RMK AO2 SLP150 T03060261
Temperature: 30.6°C ( 87°F)
Dewpoint: 26.1°C ( 79°F) [RH = 77%]
Pressure (altimeter):29.98 inches Hg (1015.3 mb) [Sea level pressure: 1015.0 mb]
Winds:from the WSW (250 degrees) at 8 MPH (7 knots; 3.6 m/s)
Visibility:10 or more sm (16+ km)
Ceiling:at least 12,000 feet AGL
Clouds:sky clear below 12,000 feet AGL